sensor_id;sensor_type;location;lat;lon;timestamp;temperature;humidity
2465;DHT22;1244;54.326;10.074;2023-05-02T00:00:47;11.20;99.90
2465;DHT22;1244;54.326;10.074;2023-05-02T00:03:12;11.30;99.90
2465;DHT22;1244;54.326;10.074;2023-05-02T00:05:38;11.10;99.90
2465;DHT22;1244;54.326;10.074;2023-05-02T00:08:05;11.20;99.90
2465;DHT22;1244;54.326;10.074;2023-05-02T00:10:30;11.10;99.90
2465;DHT22;1244;54.326;10.074;2023-05-02T00:12:56;11.10;99.90
2465;DHT22;1244;54.326;10.074;2023-05-02T00:15:21;11.20;99.90
2465;DHT22;1244;54.326;10.074;2023-05-02T00:17:47;11.10;99.90
2465;DHT22;1244;54.326;10.074;2023-05-02T00:20:12;11.00;99.90
2465;DHT22;1244;54.326;10.074;2023-05-02T00:22:38;11.00;99.90
2465;DHT22;1244;54.326;10.074;2023-05-02T00:25:04;10.90;99.90
2465;DHT22;1244;54.326;10.074;2023-05-02T00:27:30;11.10;99.90
2465;DHT22;1244;54.326;10.074;2023-05-02T00:29:59;10.90;99.90
2465;DHT22;1244;54.326;10.074;2023-05-02T00:32:25;11.00;99.90
2465;DHT22;1244;54.326;10.074;2023-05-02T00:34:51;11.10;99.90
2465;DHT22;1244;54.326;10.074;2023-05-02T00:37:17;11.10;99.90
2465;DHT22;1244;54.326;10.074;2023-05-02T00:39:42;11.10;99.90
2465;DHT22;1244;54.326;10.074;2023-05-02T00:42:09;11.00;99.90
2465;DHT22;1244;54.326;10.074;2023-05-02T00:44:35;11.10;99.90
2465;DHT22;1244;54.326;10.074;2023-05-02T00:47:01;11.00;99.90
2465;DHT22;1244;54.326;10.074;2023-05-02T00:49:26;11.00;99.90
2465;DHT22;1244;54.326;10.074;2023-05-02T00:51:53;10.80;99.90
2465;DHT22;1244;54.326;10.074;2023-05-02T00:54:19;10.80;99.90
2465;DHT22;1244;54.326;10.074;2023-05-02T00:56:44;10.80;99.90
2465;DHT22;1244;54.326;10.074;2023-05-02T00:59:11;11.00;99.90
2465;DHT22;1244;54.326;10.074;2023-05-02T01:02:33;10.90;99.90
2465;DHT22;1244;54.326;10.074;2023-05-02T01:05:16;10.90;99.90
2465;DHT22;1244;54.326;10.074;2023-05-02T01:08:12;10.90;99.90
2465;DHT22;1244;54.326;10.074;2023-05-02T01:11:04;10.90;99.90
2465;DHT22;1244;54.326;10.074;2023-05-02T01:13:34;11.00;99.90
2465;DHT22;1244;54.326;10.074;2023-05-02T01:16:01;10.90;99.90
2465;DHT22;1244;54.326;10.074;2023-05-02T01:18:33;10.80;99.90
2465;DHT22;1244;54.326;10.074;2023-05-02T01:21:02;10.70;99.90
2465;DHT22;1244;54.326;10.074;2023-05-02T01:29:06;10.20;99.90
2465;DHT22;1244;54.326;10.074;2023-05-02T01:31:40;10.10;99.90
2465;DHT22;1244;54.326;10.074;2023-05-02T01:34:10;10.00;99.90
2465;DHT22;1244;54.326;10.074;2023-05-02T01:36:40;9.90;99.90
2465;DHT22;1244;54.326;10.074;2023-05-02T01:39:08;9.90;99.90
2465;DHT22;1244;54.326;10.074;2023-05-02T01:41:35;9.90;99.90
2465;DHT22;1244;54.326;10.074;2023-05-02T01:44:02;9.60;99.90
2465;DHT22;1244;54.326;10.074;2023-05-02T01:46:33;9.30;99.90
2465;DHT22;1244;54.326;10.074;2023-05-02T01:49:02;9.20;99.90
2465;DHT22;1244;54.326;10.074;2023-05-02T01:51:32;9.10;99.90
2465;DHT22;1244;54.326;10.074;2023-05-02T04:04:04;7.40;99.90
2465;DHT22;1244;54.326;10.074;2023-05-02T04:08:57;7.30;99.90
2465;DHT22;1244;54.326;10.074;2023-05-02T04:11:23;7.10;99.90
2465;DHT22;1244;54.326;10.074;2023-05-02T04:13:51;6.90;99.90
2465;DHT22;1244;54.326;10.074;2023-05-02T04:18:43;7.00;99.90
2465;DHT22;1244;54.326;10.074;2023-05-02T04:21:08;6.90;99.90
2465;DHT22;1244;54.326;10.074;2023-05-02T05:22:24;7.60;99.90
2465;DHT22;1244;54.326;10.074;2023-05-02T05:46:53;7.40;99.90
2465;DHT22;1244;54.326;10.074;2023-05-02T05:49:19;7.70;99.90
2465;DHT22;1244;54.326;10.074;2023-05-02T05:51:46;7.70;99.90
2465;DHT22;1244;54.326;10.074;2023-05-02T05:54:11;7.90;99.90
2465;DHT22;1244;54.326;10.074;2023-05-02T05:56:37;7.70;99.90
2465;DHT22;1244;54.326;10.074;2023-05-02T05:59:02;7.80;99.90
2465;DHT22;1244;54.326;10.074;2023-05-02T06:01:28;7.90;99.90
2465;DHT22;1244;54.326;10.074;2023-05-02T06:03:53;7.90;99.90
2465;DHT22;1244;54.326;10.074;2023-05-02T06:06:19;8.00;99.90
2465;DHT22;1244;54.326;10.074;2023-05-02T06:08:44;8.10;99.90
2465;DHT22;1244;54.326;10.074;2023-05-02T06:11:10;7.90;99.90
2465;DHT22;1244;54.326;10.074;2023-05-02T06:13:36;8.00;99.90
2465;DHT22;1244;54.326;10.074;2023-05-02T06:16:02;8.00;99.90
2465;DHT22;1244;54.326;10.074;2023-05-02T06:18:27;7.80;99.90
2465;DHT22;1244;54.326;10.074;2023-05-02T06:20:53;7.90;99.90
2465;DHT22;1244;54.326;10.074;2023-05-02T06:23:19;8.10;99.90
2465;DHT22;1244;54.326;10.074;2023-05-02T06:25:44;8.10;99.90
2465;DHT22;1244;54.326;10.074;2023-05-02T06:28:10;8.10;99.90
2465;DHT22;1244;54.326;10.074;2023-05-02T06:30:35;8.20;99.90
2465;DHT22;1244;54.326;10.074;2023-05-02T06:33:03;8.30;99.90
2465;DHT22;1244;54.326;10.074;2023-05-02T06:35:32;8.50;99.90
2465;DHT22;1244;54.326;10.074;2023-05-02T06:37:57;8.50;99.90
2465;DHT22;1244;54.326;10.074;2023-05-02T06:40:23;8.50;99.90
2465;DHT22;1244;54.326;10.074;2023-05-02T06:42:48;8.70;99.90
2465;DHT22;1244;54.326;10.074;2023-05-02T06:45:14;8.60;99.90
2465;DHT22;1244;54.326;10.074;2023-05-02T06:47:39;8.40;99.90
2465;DHT22;1244;54.326;10.074;2023-05-02T06:50:05;8.80;99.90
2465;DHT22;1244;54.326;10.074;2023-05-02T06:52:31;9.20;99.90
2465;DHT22;1244;54.326;10.074;2023-05-02T06:54:56;9.60;99.90
2465;DHT22;1244;54.326;10.074;2023-05-02T06:57:23;9.50;99.90
2465;DHT22;1244;54.326;10.074;2023-05-02T06:59:49;9.20;99.90
2465;DHT22;1244;54.326;10.074;2023-05-02T07:02:14;9.00;99.90
2465;DHT22;1244;54.326;10.074;2023-05-02T11:35:25;14.70;99.90
2465;DHT22;1244;54.326;10.074;2023-05-02T11:38:24;14.10;99.90
2465;DHT22;1244;54.326;10.074;2023-05-02T11:50:50;14.30;99.90
2465;DHT22;1244;54.326;10.074;2023-05-02T12:13:21;14.10;99.90
2465;DHT22;1244;54.326;10.074;2023-05-02T12:18:16;14.30;99.90
2465;DHT22;1244;54.326;10.074;2023-05-02T12:20:42;14.10;99.90
2465;DHT22;1244;54.326;10.074;2023-05-02T12:23:08;14.30;99.90
2465;DHT22;1244;54.326;10.074;2023-05-02T12:25:41;14.70;99.90
2465;DHT22;1244;54.326;10.074;2023-05-02T12:30:34;16.20;99.90
2465;DHT22;1244;54.326;10.074;2023-05-02T12:33:02;15.80;99.90
2465;DHT22;1244;54.326;10.074;2023-05-02T12:35:29;15.00;99.90
2465;DHT22;1244;54.326;10.074;2023-05-02T12:38:11;14.40;99.90
2465;DHT22;1244;54.326;10.074;2023-05-02T12:40:36;14.10;99.90
2465;DHT22;1244;54.326;10.074;2023-05-02T12:43:03;14.50;99.90
2465;DHT22;1244;54.326;10.074;2023-05-02T12:45:31;15.30;99.90
2465;DHT22;1244;54.326;10.074;2023-05-02T12:50:47;13.80;99.90
2465;DHT22;1244;54.326;10.074;2023-05-02T12:53:13;13.50;99.90
2465;DHT22;1244;54.326;10.074;2023-05-02T12:55:38;13.50;99.90
2465;DHT22;1244;54.326;10.074;2023-05-02T12:58:06;13.20;99.90
2465;DHT22;1244;54.326;10.074;2023-05-02T13:00:34;13.30;99.90
2465;DHT22;1244;54.326;10.074;2023-05-02T13:05:27;15.20;99.90
2465;DHT22;1244;54.326;10.074;2023-05-02T13:10:21;16.70;99.90
2465;DHT22;1244;54.326;10.074;2023-05-02T13:12:47;16.80;99.90
2465;DHT22;1244;54.326;10.074;2023-05-02T13:15:13;15.80;99.90
2465;DHT22;1244;54.326;10.074;2023-05-02T13:17:38;15.40;99.90
2465;DHT22;1244;54.326;10.074;2023-05-02T13:20:05;14.70;99.90
2465;DHT22;1244;54.326;10.074;2023-05-02T13:22:31;15.00;99.90
2465;DHT22;1244;54.326;10.074;2023-05-02T13:24:56;15.60;99.90
2465;DHT22;1244;54.326;10.074;2023-05-02T13:27:22;17.00;99.90
2465;DHT22;1244;54.326;10.074;2023-05-02T13:29:48;17.20;99.90
2465;DHT22;1244;54.326;10.074;2023-05-02T13:32:14;17.60;99.90
2465;DHT22;1244;54.326;10.074;2023-05-02T13:34:40;16.20;99.90
2465;DHT22;1244;54.326;10.074;2023-05-02T13:37:06;15.40;99.90
2465;DHT22;1244;54.326;10.074;2023-05-02T13:39:31;15.50;99.90
2465;DHT22;1244;54.326;10.074;2023-05-02T13:41:57;14.60;99.90
2465;DHT22;1244;54.326;10.074;2023-05-02T13:44:23;14.40;99.90
2465;DHT22;1244;54.326;10.074;2023-05-02T13:46:48;14.50;99.90
2465;DHT22;1244;54.326;10.074;2023-05-02T13:49:13;14.60;99.90
2465;DHT22;1244;54.326;10.074;2023-05-02T13:51:39;14.60;99.90
2465;DHT22;1244;54.326;10.074;2023-05-02T13:54:05;14.10;99.90
2465;DHT22;1244;54.326;10.074;2023-05-02T13:56:31;13.70;99.90
2465;DHT22;1244;54.326;10.074;2023-05-02T13:58:58;13.60;99.90
2465;DHT22;1244;54.326;10.074;2023-05-02T14:01:23;14.10;99.90
2465;DHT22;1244;54.326;10.074;2023-05-02T14:03:51;15.20;99.90
2465;DHT22;1244;54.326;10.074;2023-05-02T14:06:16;15.40;99.90
2465;DHT22;1244;54.326;10.074;2023-05-02T14:08:42;15.20;99.90
2465;DHT22;1244;54.326;10.074;2023-05-02T14:11:08;14.60;99.90
2465;DHT22;1244;54.326;10.074;2023-05-02T14:13:33;14.40;99.90
2465;DHT22;1244;54.326;10.074;2023-05-02T14:15:59;15.50;99.90
2465;DHT22;1244;54.326;10.074;2023-05-02T14:18:24;15.60;99.90
2465;DHT22;1244;54.326;10.074;2023-05-02T14:20:50;15.20;99.90
2465;DHT22;1244;54.326;10.074;2023-05-02T14:23:15;15.50;99.90
2465;DHT22;1244;54.326;10.074;2023-05-02T14:25:41;14.70;99.90
2465;DHT22;1244;54.326;10.074;2023-05-02T14:28:06;14.60;99.90
2465;DHT22;1244;54.326;10.074;2023-05-02T14:30:32;15.20;99.90
2465;DHT22;1244;54.326;10.074;2023-05-02T14:32:57;15.40;99.90
2465;DHT22;1244;54.326;10.074;2023-05-02T14:35:23;14.30;99.90
2465;DHT22;1244;54.326;10.074;2023-05-02T14:37:49;14.20;99.90
2465;DHT22;1244;54.326;10.074;2023-05-02T14:40:14;14.10;99.90
2465;DHT22;1244;54.326;10.074;2023-05-02T14:42:40;14.20;99.90
2465;DHT22;1244;54.326;10.074;2023-05-02T14:45:07;14.50;99.90
2465;DHT22;1244;54.326;10.074;2023-05-02T14:47:33;14.60;99.90
2465;DHT22;1244;54.326;10.074;2023-05-02T14:49:59;13.70;99.90
2465;DHT22;1244;54.326;10.074;2023-05-02T14:52:25;13.60;99.90
2465;DHT22;1244;54.326;10.074;2023-05-02T14:54:51;13.60;99.90
2465;DHT22;1244;54.326;10.074;2023-05-02T14:57:17;14.10;99.90
2465;DHT22;1244;54.326;10.074;2023-05-02T14:59:43;14.00;99.90
2465;DHT22;1244;54.326;10.074;2023-05-02T15:02:09;14.00;99.90
2465;DHT22;1244;54.326;10.074;2023-05-02T15:04:35;14.40;99.90
2465;DHT22;1244;54.326;10.074;2023-05-02T15:07:01;14.30;99.90
2465;DHT22;1244;54.326;10.074;2023-05-02T15:09:26;13.90;99.90
2465;DHT22;1244;54.326;10.074;2023-05-02T15:11:53;13.60;99.90
2465;DHT22;1244;54.326;10.074;2023-05-02T15:14:19;13.50;99.90
2465;DHT22;1244;54.326;10.074;2023-05-02T15:16:44;13.20;99.90
2465;DHT22;1244;54.326;10.074;2023-05-02T15:19:10;12.90;99.90
2465;DHT22;1244;54.326;10.074;2023-05-02T15:21:36;13.00;99.90
2465;DHT22;1244;54.326;10.074;2023-05-02T15:24:01;13.50;99.90
2465;DHT22;1244;54.326;10.074;2023-05-02T15:26:28;13.50;99.90
2465;DHT22;1244;54.326;10.074;2023-05-02T15:28:54;13.50;99.90
2465;DHT22;1244;54.326;10.074;2023-05-02T15:31:20;13.50;99.90
2465;DHT22;1244;54.326;10.074;2023-05-02T15:33:45;13.60;99.90
2465;DHT22;1244;54.326;10.074;2023-05-02T15:36:11;13.40;99.90
2465;DHT22;1244;54.326;10.074;2023-05-02T15:38:36;13.10;99.90
2465;DHT22;1244;54.326;10.074;2023-05-02T15:41:04;13.10;99.90
2465;DHT22;1244;54.326;10.074;2023-05-02T15:43:30;13.00;99.90
2465;DHT22;1244;54.326;10.074;2023-05-02T15:45:57;13.10;99.90
2465;DHT22;1244;54.326;10.074;2023-05-02T15:48:25;12.90;99.90
2465;DHT22;1244;54.326;10.074;2023-05-02T15:50:52;12.50;99.90
2465;DHT22;1244;54.326;10.074;2023-05-02T15:53:18;12.30;99.90
2465;DHT22;1244;54.326;10.074;2023-05-02T15:55:44;12.40;99.90
2465;DHT22;1244;54.326;10.074;2023-05-02T15:58:11;12.10;99.90
2465;DHT22;1244;54.326;10.074;2023-05-02T16:00:37;12.30;99.90
2465;DHT22;1244;54.326;10.074;2023-05-02T16:03:03;12.30;99.90
2465;DHT22;1244;54.326;10.074;2023-05-02T16:05:28;12.40;99.90
2465;DHT22;1244;54.326;10.074;2023-05-02T16:07:54;12.30;99.90
2465;DHT22;1244;54.326;10.074;2023-05-02T16:10:20;12.10;99.90
2465;DHT22;1244;54.326;10.074;2023-05-02T16:12:45;12.40;99.90
2465;DHT22;1244;54.326;10.074;2023-05-02T16:15:11;12.60;99.90
2465;DHT22;1244;54.326;10.074;2023-05-02T16:17:36;12.80;99.90
2465;DHT22;1244;54.326;10.074;2023-05-02T16:20:02;12.70;99.90
2465;DHT22;1244;54.326;10.074;2023-05-02T16:22:27;12.50;99.90
2465;DHT22;1244;54.326;10.074;2023-05-02T16:24:53;12.50;99.90
2465;DHT22;1244;54.326;10.074;2023-05-02T16:27:19;12.30;99.90
2465;DHT22;1244;54.326;10.074;2023-05-02T16:29:45;12.30;99.90
2465;DHT22;1244;54.326;10.074;2023-05-02T16:32:10;11.90;99.90
2465;DHT22;1244;54.326;10.074;2023-05-02T16:34:36;11.30;99.90
2465;DHT22;1244;54.326;10.074;2023-05-02T16:37:02;11.30;99.90
2465;DHT22;1244;54.326;10.074;2023-05-02T16:39:28;11.30;99.90
2465;DHT22;1244;54.326;10.074;2023-05-02T16:41:53;11.30;99.90
2465;DHT22;1244;54.326;10.074;2023-05-02T16:44:19;11.30;99.90
2465;DHT22;1244;54.326;10.074;2023-05-02T16:46:44;11.20;99.90
2465;DHT22;1244;54.326;10.074;2023-05-02T16:49:10;11.00;99.90
2465;DHT22;1244;54.326;10.074;2023-05-02T16:51:36;11.00;99.90
2465;DHT22;1244;54.326;10.074;2023-05-02T16:54:01;11.00;99.90
2465;DHT22;1244;54.326;10.074;2023-05-02T16:56:27;10.90;99.90
2465;DHT22;1244;54.326;10.074;2023-05-02T16:58:53;10.90;99.90
2465;DHT22;1244;54.326;10.074;2023-05-02T17:01:19;10.90;99.90
2465;DHT22;1244;54.326;10.074;2023-05-02T17:03:46;10.90;99.90
2465;DHT22;1244;54.326;10.074;2023-05-02T17:06:12;10.80;99.90
2465;DHT22;1244;54.326;10.074;2023-05-02T17:08:37;10.70;99.90
2465;DHT22;1244;54.326;10.074;2023-05-02T17:11:03;10.80;99.90
2465;DHT22;1244;54.326;10.074;2023-05-02T17:13:29;10.80;99.90
2465;DHT22;1244;54.326;10.074;2023-05-02T17:15:55;10.80;99.90
2465;DHT22;1244;54.326;10.074;2023-05-02T17:18:21;10.40;99.90
2465;DHT22;1244;54.326;10.074;2023-05-02T17:20:48;10.20;99.90
2465;DHT22;1244;54.326;10.074;2023-05-02T17:23:14;10.20;99.90
2465;DHT22;1244;54.326;10.074;2023-05-02T17:25:40;10.20;99.90
2465;DHT22;1244;54.326;10.074;2023-05-02T17:28:06;10.20;99.90
2465;DHT22;1244;54.326;10.074;2023-05-02T17:30:31;10.20;99.90
2465;DHT22;1244;54.326;10.074;2023-05-02T17:32:58;10.30;99.90
2465;DHT22;1244;54.326;10.074;2023-05-02T17:35:24;10.20;99.90
2465;DHT22;1244;54.326;10.074;2023-05-02T17:37:50;10.10;99.90
2465;DHT22;1244;54.326;10.074;2023-05-02T17:40:15;10.10;99.90
2465;DHT22;1244;54.326;10.074;2023-05-02T17:42:42;10.20;99.90
2465;DHT22;1244;54.326;10.074;2023-05-02T17:45:09;10.20;99.90
2465;DHT22;1244;54.326;10.074;2023-05-02T17:47:35;10.00;99.90
2465;DHT22;1244;54.326;10.074;2023-05-02T17:50:01;10.20;99.90
2465;DHT22;1244;54.326;10.074;2023-05-02T17:52:31;10.10;99.90
2465;DHT22;1244;54.326;10.074;2023-05-02T17:54:59;9.80;99.90
2465;DHT22;1244;54.326;10.074;2023-05-02T17:57:24;9.90;99.90
2465;DHT22;1244;54.326;10.074;2023-05-02T17:59:50;10.00;99.90
2465;DHT22;1244;54.326;10.074;2023-05-02T18:02:21;10.00;99.90
2465;DHT22;1244;54.326;10.074;2023-05-02T18:04:47;9.90;99.90
2465;DHT22;1244;54.326;10.074;2023-05-02T18:07:14;9.80;99.90
2465;DHT22;1244;54.326;10.074;2023-05-02T18:09:40;9.90;99.90
2465;DHT22;1244;54.326;10.074;2023-05-02T18:12:06;9.70;99.90
2465;DHT22;1244;54.326;10.074;2023-05-02T18:14:31;9.70;99.90
2465;DHT22;1244;54.326;10.074;2023-05-02T18:16:57;9.40;99.90
2465;DHT22;1244;54.326;10.074;2023-05-02T18:19:23;9.30;99.90
2465;DHT22;1244;54.326;10.074;2023-05-02T18:21:49;9.20;99.90
2465;DHT22;1244;54.326;10.074;2023-05-02T18:24:14;9.30;99.90
2465;DHT22;1244;54.326;10.074;2023-05-02T18:26:40;9.40;99.90
2465;DHT22;1244;54.326;10.074;2023-05-02T18:29:05;9.40;99.90
2465;DHT22;1244;54.326;10.074;2023-05-02T18:31:31;9.30;99.90
2465;DHT22;1244;54.326;10.074;2023-05-02T18:33:56;9.40;99.90
2465;DHT22;1244;54.326;10.074;2023-05-02T18:36:27;9.20;99.90
2465;DHT22;1244;54.326;10.074;2023-05-02T18:38:55;9.20;99.90
2465;DHT22;1244;54.326;10.074;2023-05-02T18:41:21;9.00;99.90
2465;DHT22;1244;54.326;10.074;2023-05-02T18:43:47;9.00;99.90
2465;DHT22;1244;54.326;10.074;2023-05-02T18:46:12;8.90;99.90
2465;DHT22;1244;54.326;10.074;2023-05-02T18:48:38;8.90;99.90
2465;DHT22;1244;54.326;10.074;2023-05-02T18:51:04;8.80;99.90
2465;DHT22;1244;54.326;10.074;2023-05-02T18:53:30;8.70;99.90
2465;DHT22;1244;54.326;10.074;2023-05-02T18:55:55;8.80;99.90
2465;DHT22;1244;54.326;10.074;2023-05-02T18:58:22;8.80;99.90
2465;DHT22;1244;54.326;10.074;2023-05-02T19:00:48;8.70;99.90
2465;DHT22;1244;54.326;10.074;2023-05-02T19:03:14;8.60;99.90
2465;DHT22;1244;54.326;10.074;2023-05-02T19:05:41;8.60;99.90
2465;DHT22;1244;54.326;10.074;2023-05-02T19:08:06;8.50;99.90
2465;DHT22;1244;54.326;10.074;2023-05-02T19:10:32;8.50;99.90
2465;DHT22;1244;54.326;10.074;2023-05-02T19:12:59;8.60;99.90
2465;DHT22;1244;54.326;10.074;2023-05-02T19:15:24;8.50;99.90
2465;DHT22;1244;54.326;10.074;2023-05-02T19:17:51;8.40;99.90
2465;DHT22;1244;54.326;10.074;2023-05-02T19:20:18;8.40;99.90
2465;DHT22;1244;54.326;10.074;2023-05-02T19:22:43;8.30;99.90
2465;DHT22;1244;54.326;10.074;2023-05-02T19:25:11;8.20;99.90
2465;DHT22;1244;54.326;10.074;2023-05-02T19:27:37;8.20;99.90
2465;DHT22;1244;54.326;10.074;2023-05-02T19:30:04;8.20;99.90
2465;DHT22;1244;54.326;10.074;2023-05-02T19:32:31;8.10;99.90
2465;DHT22;1244;54.326;10.074;2023-05-02T19:34:56;8.10;99.90
2465;DHT22;1244;54.326;10.074;2023-05-02T19:37:22;8.20;99.90
2465;DHT22;1244;54.326;10.074;2023-05-02T19:39:48;8.10;99.90
2465;DHT22;1244;54.326;10.074;2023-05-02T19:42:13;8.00;99.90
2465;DHT22;1244;54.326;10.074;2023-05-02T19:44:39;7.90;99.90
2465;DHT22;1244;54.326;10.074;2023-05-02T19:47:04;7.90;99.90
2465;DHT22;1244;54.326;10.074;2023-05-02T19:49:30;8.00;99.90
2465;DHT22;1244;54.326;10.074;2023-05-02T19:51:55;8.00;99.90
2465;DHT22;1244;54.326;10.074;2023-05-02T19:54:21;7.80;99.90
2465;DHT22;1244;54.326;10.074;2023-05-02T19:56:46;7.80;99.90
2465;DHT22;1244;54.326;10.074;2023-05-02T19:59:13;7.90;99.90
2465;DHT22;1244;54.326;10.074;2023-05-02T20:01:39;7.80;99.90
2465;DHT22;1244;54.326;10.074;2023-05-02T20:04:05;7.70;99.90
2465;DHT22;1244;54.326;10.074;2023-05-02T20:06:30;7.80;99.90
2465;DHT22;1244;54.326;10.074;2023-05-02T20:08:56;7.90;99.90
2465;DHT22;1244;54.326;10.074;2023-05-02T20:11:22;7.60;99.90
2465;DHT22;1244;54.326;10.074;2023-05-02T20:13:48;7.50;99.90
2465;DHT22;1244;54.326;10.074;2023-05-02T20:16:13;7.50;99.90
2465;DHT22;1244;54.326;10.074;2023-05-02T20:18:39;7.50;99.90
2465;DHT22;1244;54.326;10.074;2023-05-02T20:21:04;7.50;99.90
2465;DHT22;1244;54.326;10.074;2023-05-02T20:23:30;7.50;99.90
2465;DHT22;1244;54.326;10.074;2023-05-02T20:25:55;7.50;99.90
2465;DHT22;1244;54.326;10.074;2023-05-02T20:28:21;7.60;99.90
2465;DHT22;1244;54.326;10.074;2023-05-02T20:30:47;7.60;99.90
2465;DHT22;1244;54.326;10.074;2023-05-02T20:33:12;7.40;99.90
2465;DHT22;1244;54.326;10.074;2023-05-02T20:35:38;7.20;99.90
2465;DHT22;1244;54.326;10.074;2023-05-02T20:38:04;7.30;99.90
2465;DHT22;1244;54.326;10.074;2023-05-02T20:40:30;7.20;99.90
2465;DHT22;1244;54.326;10.074;2023-05-02T20:42:56;7.20;99.90
2465;DHT22;1244;54.326;10.074;2023-05-02T20:45:25;7.20;99.90
2465;DHT22;1244;54.326;10.074;2023-05-02T20:47:51;7.20;99.90
2465;DHT22;1244;54.326;10.074;2023-05-02T20:50:16;7.20;99.90
2465;DHT22;1244;54.326;10.074;2023-05-02T20:52:42;7.30;99.90
2465;DHT22;1244;54.326;10.074;2023-05-02T20:55:08;7.10;99.90
2465;DHT22;1244;54.326;10.074;2023-05-02T20:57:34;7.10;99.90
2465;DHT22;1244;54.326;10.074;2023-05-02T20:59:59;7.10;99.90
2465;DHT22;1244;54.326;10.074;2023-05-02T21:02:28;7.10;99.90
2465;DHT22;1244;54.326;10.074;2023-05-02T21:04:54;7.00;99.90
2465;DHT22;1244;54.326;10.074;2023-05-02T21:07:20;7.00;99.90
2465;DHT22;1244;54.326;10.074;2023-05-02T21:09:45;7.00;99.90
2465;DHT22;1244;54.326;10.074;2023-05-02T21:12:11;7.10;99.90
2465;DHT22;1244;54.326;10.074;2023-05-02T21:14:36;7.00;99.90
2465;DHT22;1244;54.326;10.074;2023-05-02T21:17:02;7.00;99.90
2465;DHT22;1244;54.326;10.074;2023-05-02T21:19:27;6.80;99.90
2465;DHT22;1244;54.326;10.074;2023-05-02T21:21:53;6.80;99.90
2465;DHT22;1244;54.326;10.074;2023-05-02T21:24:18;6.90;99.90
2465;DHT22;1244;54.326;10.074;2023-05-02T21:26:44;6.90;99.90
2465;DHT22;1244;54.326;10.074;2023-05-02T21:29:10;6.90;99.90
2465;DHT22;1244;54.326;10.074;2023-05-02T21:31:35;6.80;99.90
2465;DHT22;1244;54.326;10.074;2023-05-02T21:34:03;6.90;99.90
2465;DHT22;1244;54.326;10.074;2023-05-02T21:36:28;6.70;99.90
2465;DHT22;1244;54.326;10.074;2023-05-02T21:38:54;6.70;99.90
2465;DHT22;1244;54.326;10.074;2023-05-02T21:41:19;6.70;99.90
2465;DHT22;1244;54.326;10.074;2023-05-02T21:43:45;6.70;99.90
2465;DHT22;1244;54.326;10.074;2023-05-02T21:46:11;6.70;99.90
2465;DHT22;1244;54.326;10.074;2023-05-02T21:48:37;6.70;99.90
2465;DHT22;1244;54.326;10.074;2023-05-02T21:51:10;6.70;99.90
2465;DHT22;1244;54.326;10.074;2023-05-02T21:53:36;6.60;99.90
2465;DHT22;1244;54.326;10.074;2023-05-02T21:56:02;6.60;99.90
2465;DHT22;1244;54.326;10.074;2023-05-02T21:58:28;6.50;99.90
2465;DHT22;1244;54.326;10.074;2023-05-02T22:00:54;6.50;99.90
2465;DHT22;1244;54.326;10.074;2023-05-02T22:03:19;6.50;99.90
2465;DHT22;1244;54.326;10.074;2023-05-02T22:05:47;6.50;99.90
2465;DHT22;1244;54.326;10.074;2023-05-02T22:08:12;6.50;99.90
2465;DHT22;1244;54.326;10.074;2023-05-02T22:10:39;6.40;99.90
2465;DHT22;1244;54.326;10.074;2023-05-02T22:13:08;6.20;99.90
2465;DHT22;1244;54.326;10.074;2023-05-02T22:15:34;6.30;99.90
2465;DHT22;1244;54.326;10.074;2023-05-02T22:18:00;6.20;99.90
2465;DHT22;1244;54.326;10.074;2023-05-02T22:20:29;6.10;99.90
2465;DHT22;1244;54.326;10.074;2023-05-02T22:22:55;6.10;99.90
2465;DHT22;1244;54.326;10.074;2023-05-02T22:25:21;6.20;99.90
2465;DHT22;1244;54.326;10.074;2023-05-02T22:27:46;6.30;99.90
2465;DHT22;1244;54.326;10.074;2023-05-02T22:30:12;6.40;99.90
2465;DHT22;1244;54.326;10.074;2023-05-02T22:32:37;6.30;99.90
2465;DHT22;1244;54.326;10.074;2023-05-02T22:35:03;6.20;99.90
2465;DHT22;1244;54.326;10.074;2023-05-02T22:37:29;6.30;99.90
2465;DHT22;1244;54.326;10.074;2023-05-02T22:39:55;6.30;99.90
2465;DHT22;1244;54.326;10.074;2023-05-02T22:42:22;6.20;99.90
2465;DHT22;1244;54.326;10.074;2023-05-02T22:44:48;6.20;99.90
2465;DHT22;1244;54.326;10.074;2023-05-02T22:47:15;6.10;99.90
2465;DHT22;1244;54.326;10.074;2023-05-02T22:49:41;6.20;99.90
2465;DHT22;1244;54.326;10.074;2023-05-02T22:52:07;6.20;99.90
2465;DHT22;1244;54.326;10.074;2023-05-02T22:54:33;6.00;99.90
2465;DHT22;1244;54.326;10.074;2023-05-02T22:56:58;6.10;99.90
2465;DHT22;1244;54.326;10.074;2023-05-02T22:59:24;6.20;99.90
2465;DHT22;1244;54.326;10.074;2023-05-02T23:01:49;6.00;99.90
2465;DHT22;1244;54.326;10.074;2023-05-02T23:04:15;5.90;99.90
2465;DHT22;1244;54.326;10.074;2023-05-02T23:06:40;5.90;99.90
2465;DHT22;1244;54.326;10.074;2023-05-02T23:09:06;6.00;99.90
2465;DHT22;1244;54.326;10.074;2023-05-02T23:11:32;6.00;99.90
2465;DHT22;1244;54.326;10.074;2023-05-02T23:13:58;5.80;99.90
2465;DHT22;1244;54.326;10.074;2023-05-02T23:16:23;5.90;99.90
2465;DHT22;1244;54.326;10.074;2023-05-02T23:18:49;5.90;99.90
2465;DHT22;1244;54.326;10.074;2023-05-02T23:21:15;5.80;99.90
2465;DHT22;1244;54.326;10.074;2023-05-02T23:23:41;5.80;99.90
2465;DHT22;1244;54.326;10.074;2023-05-02T23:26:08;5.80;99.90
2465;DHT22;1244;54.326;10.074;2023-05-02T23:28:34;5.70;99.90
2465;DHT22;1244;54.326;10.074;2023-05-02T23:31:00;5.70;99.90
2465;DHT22;1244;54.326;10.074;2023-05-02T23:33:26;5.70;99.90
2465;DHT22;1244;54.326;10.074;2023-05-02T23:35:52;5.60;99.90
2465;DHT22;1244;54.326;10.074;2023-05-02T23:38:18;5.60;99.90
2465;DHT22;1244;54.326;10.074;2023-05-02T23:40:43;5.50;99.90
2465;DHT22;1244;54.326;10.074;2023-05-02T23:43:09;5.60;99.90
2465;DHT22;1244;54.326;10.074;2023-05-02T23:45:35;5.60;99.90
2465;DHT22;1244;54.326;10.074;2023-05-02T23:48:00;5.50;99.90
2465;DHT22;1244;54.326;10.074;2023-05-02T23:50:26;5.60;99.90
2465;DHT22;1244;54.326;10.074;2023-05-02T23:52:51;5.70;99.90
2465;DHT22;1244;54.326;10.074;2023-05-02T23:55:17;5.50;99.90
2465;DHT22;1244;54.326;10.074;2023-05-02T23:57:42;5.50;99.90
